East Lansing, Michigan
Current Conditions -  °F | °C
As of 9:53 PM on Saturday 25 Oct 2014 (Local Time) from KLAN Reporting Station
Clear Clear  
Wind Chill: 51°   Ceiling: Unl
Heat Index: 51°   Visibility: 10mi
Dew Point: 33°   Wind: 10mph
Humidity: 50%   Direction: 280°W
Pressure: 29.84"   Gusts: NA
Location:  42.74°N, 84.48°W
Report Text: KLAN 260153Z 28009KT 10SM CLR 11/01 A2984 RMK AO2 SLP106 T01060006
Loading
Personal Weather Stations






























Interactive Weather Map
Tropical Storm Tracking
New forecast layout! Learn more

10-Day Weather Forecast

Advertisements
Track Severe Weather on mobile